createdAt,value
2023-05-10T00:02:16.679Z,10.78
2023-05-10T00:04:47.516Z,10.80
2023-05-10T00:07:18.788Z,10.80
2023-05-10T00:09:49.453Z,10.82
2023-05-10T00:12:20.225Z,10.85
2023-05-10T00:14:50.951Z,10.84
2023-05-10T00:17:21.774Z,10.84
2023-05-10T00:19:52.557Z,10.77
2023-05-10T00:22:23.144Z,10.72
2023-05-10T00:24:53.898Z,10.74
2023-05-10T00:27:24.607Z,10.73
2023-05-10T00:29:55.590Z,10.71
2023-05-10T00:32:26.413Z,10.66
2023-05-10T00:34:57.297Z,10.66
2023-05-10T00:37:28.281Z,10.70
2023-05-10T00:39:58.908Z,10.72
2023-05-10T00:42:29.742Z,10.68
2023-05-10T00:45:00.620Z,10.71
2023-05-10T00:47:31.353Z,10.79
2023-05-10T00:50:02.600Z,10.86
2023-05-10T00:52:33.376Z,10.92
2023-05-10T00:55:04.486Z,11.00
2023-05-10T00:57:35.378Z,11.06
2023-05-10T01:00:07.125Z,11.12
2023-05-10T01:02:38.006Z,11.15
2023-05-10T01:05:09.386Z,11.19
2023-05-10T01:07:40.128Z,11.23
2023-05-10T01:10:12.080Z,11.25
2023-05-10T01:12:43.208Z,11.27
2023-05-10T01:15:14.163Z,11.28
2023-05-10T01:17:45.284Z,11.30
2023-05-10T01:20:16.425Z,11.31
2023-05-10T01:23:06.866Z,11.32
2023-05-10T01:26:09.395Z,11.33
2023-05-10T01:28:47.402Z,11.34
2023-05-10T01:31:32.538Z,11.33
2023-05-10T01:34:03.743Z,11.33
2023-05-10T01:36:34.966Z,11.32
2023-05-10T01:39:07.960Z,11.32
2023-05-10T01:41:42.074Z,11.34
2023-05-10T01:44:15.194Z,11.35
2023-05-10T01:46:46.024Z,11.38
2023-05-10T01:49:18.645Z,11.38
2023-05-10T01:51:49.744Z,11.36
2023-05-10T01:54:21.999Z,11.33
2023-05-10T01:56:53.247Z,11.29
2023-05-10T01:59:24.084Z,11.26
2023-05-10T02:01:55.017Z,11.26
2023-05-10T02:04:25.760Z,11.24
2023-05-10T02:06:56.926Z,11.16
2023-05-10T02:09:27.770Z,11.10
2023-05-10T02:11:58.508Z,11.05
2023-05-10T02:14:29.422Z,11.03
2023-05-10T02:17:00.246Z,10.97
2023-05-10T02:19:31.170Z,10.89
2023-05-10T02:22:01.996Z,10.83
2023-05-10T02:24:32.895Z,10.82
2023-05-10T02:33:57.699Z,10.77
2023-05-10T02:36:28.569Z,10.72
2023-05-10T02:38:59.404Z,10.70
2023-05-10T02:41:30.033Z,10.66
2023-05-10T02:44:02.006Z,10.61
2023-05-10T02:46:32.734Z,10.60
2023-05-10T02:49:03.827Z,10.60
2023-05-10T02:51:35.192Z,10.59
2023-05-10T02:54:07.433Z,10.60
2023-05-10T02:56:40.551Z,10.61
2023-05-10T02:59:12.222Z,10.61
2023-05-10T03:01:43.305Z,10.60
2023-05-10T03:04:14.384Z,10.62
2023-05-10T03:06:45.156Z,10.65
2023-05-10T03:09:16.863Z,10.68
2023-05-10T03:11:52.633Z,10.69
2023-05-10T03:14:37.591Z,10.73
2023-05-10T03:17:09.495Z,10.76
2023-05-10T03:19:42.096Z,10.80
2023-05-10T03:22:13.275Z,10.85
2023-05-10T03:24:43.996Z,10.90
2023-05-10T03:27:14.638Z,10.95
2023-05-10T03:29:45.489Z,10.99
2023-05-10T03:32:16.310Z,11.01
2023-05-10T03:34:46.936Z,11.05
2023-05-10T03:37:17.845Z,11.09
2023-05-10T03:39:48.556Z,11.10
2023-05-10T03:42:19.283Z,11.09
2023-05-10T03:44:51.068Z,11.06
2023-05-10T03:47:21.608Z,11.05
2023-05-10T03:49:52.126Z,11.04
2023-05-10T03:52:22.958Z,11.04
2023-05-10T03:54:53.845Z,11.04
2023-05-10T03:57:24.643Z,11.05
2023-05-10T03:59:55.528Z,11.06
2023-05-10T04:02:26.583Z,11.02
2023-05-10T04:04:57.561Z,11.01
2023-05-10T04:07:28.328Z,11.02
2023-05-10T04:09:59.033Z,11.03
2023-05-10T04:12:29.687Z,11.05
2023-05-10T04:15:00.555Z,11.08
2023-05-10T04:17:31.313Z,11.13
2023-05-10T04:20:02.093Z,11.14
2023-05-10T04:22:34.162Z,11.17
2023-05-10T04:25:05.702Z,11.16
2023-05-10T04:27:36.412Z,11.17
2023-05-10T04:30:08.254Z,11.19
2023-05-10T04:32:39.154Z,11.18
2023-05-10T04:35:11.319Z,11.20
2023-05-10T04:37:42.069Z,11.20
2023-05-10T04:40:13.699Z,11.21
2023-05-10T04:42:44.479Z,11.24
2023-05-10T04:45:15.762Z,11.28
2023-05-10T04:47:46.607Z,11.32
2023-05-10T04:50:17.806Z,11.34
2023-05-10T04:52:48.740Z,11.37
2023-05-10T04:55:19.644Z,11.40
2023-05-10T04:57:50.450Z,11.45
2023-05-10T05:00:21.897Z,11.51
2023-05-10T05:02:52.698Z,11.55
2023-05-10T05:05:23.766Z,11.59
2023-05-10T05:07:54.629Z,11.62
2023-05-10T05:10:25.419Z,11.61
2023-05-10T05:12:57.400Z,11.57
2023-05-10T05:15:28.387Z,11.54
2023-05-10T05:17:59.143Z,11.54
2023-05-10T05:20:30.047Z,11.59
2023-05-10T05:23:00.752Z,11.66
2023-05-10T05:25:33.740Z,11.71
2023-05-10T05:28:04.377Z,11.76
2023-05-10T05:30:35.070Z,11.82
2023-05-10T05:33:05.856Z,11.87
2023-05-10T05:35:36.940Z,11.88
2023-05-10T05:38:07.817Z,11.86
2023-05-10T05:40:38.755Z,11.85
2023-05-10T05:43:09.362Z,11.85
2023-05-10T05:45:40.136Z,11.87
2023-05-10T05:48:11.182Z,11.91
2023-05-10T05:50:41.988Z,11.95
2023-05-10T05:53:12.810Z,11.99
2023-05-10T05:55:47.710Z,12.01
2023-05-10T05:58:18.372Z,12.05
2023-05-10T06:00:49.338Z,12.13
2023-05-10T06:03:20.008Z,12.21
2023-05-10T06:05:50.883Z,12.27
2023-05-10T06:08:21.750Z,12.34
2023-05-10T06:10:52.617Z,12.43
2023-05-10T06:13:23.566Z,12.49
2023-05-10T06:15:54.372Z,12.54
2023-05-10T06:18:25.221Z,12.60
2023-05-10T06:20:56.040Z,12.64
2023-05-10T06:23:27.539Z,12.70
2023-05-10T06:25:58.223Z,12.79
2023-05-10T06:28:28.925Z,12.90
2023-05-10T06:30:59.892Z,12.98
2023-05-10T06:33:30.750Z,13.00
2023-05-10T06:36:03.074Z,13.07
2023-05-10T06:38:36.117Z,13.21
2023-05-10T06:41:11.789Z,13.33
2023-05-10T06:43:42.504Z,13.46
2023-05-10T06:46:13.706Z,13.60
2023-05-10T06:48:44.821Z,13.69
2023-05-10T06:51:18.726Z,13.81
2023-05-10T06:53:49.600Z,13.96
2023-05-10T06:56:22.571Z,14.10
2023-05-10T06:58:53.866Z,14.29
2023-05-10T07:01:24.813Z,14.48
2023-05-10T07:03:59.509Z,14.62
2023-05-10T07:06:33.681Z,14.71
2023-05-10T07:09:09.092Z,14.79
2023-05-10T07:11:40.054Z,14.87
2023-05-10T07:14:13.246Z,14.97
2023-05-10T07:16:44.393Z,15.10
2023-05-10T07:19:15.164Z,15.19
2023-05-10T07:21:46.251Z,15.36
2023-05-10T07:24:17.000Z,15.53
2023-05-10T07:26:49.135Z,15.72
2023-05-10T07:29:20.051Z,15.94
2023-05-10T07:31:55.407Z,16.07
2023-05-10T07:34:29.289Z,16.19
2023-05-10T07:37:00.369Z,16.19
2023-05-10T07:39:31.119Z,16.10
2023-05-10T07:42:01.963Z,16.01
2023-05-10T07:44:34.743Z,16.02
2023-05-10T07:47:05.713Z,16.18
2023-05-10T07:49:36.708Z,16.32
2023-05-10T07:52:09.544Z,16.43
2023-05-10T07:54:40.521Z,16.57
2023-05-10T07:57:11.189Z,16.70
2023-05-10T07:59:42.353Z,16.82
2023-05-10T08:02:13.110Z,16.94
2023-05-10T08:04:44.050Z,17.04
2023-05-10T08:07:15.082Z,17.05
2023-05-10T08:09:48.130Z,17.11
2023-05-10T08:12:18.939Z,17.15
2023-05-10T08:14:49.908Z,17.18
2023-05-10T08:17:22.068Z,17.27
2023-05-10T08:19:54.306Z,17.35
2023-05-10T08:22:27.776Z,17.42
2023-05-10T08:24:58.550Z,17.51
2023-05-10T08:27:29.382Z,17.58
2023-05-10T08:30:00.196Z,17.68
2023-05-10T08:32:30.941Z,17.85
2023-05-10T08:35:01.867Z,18.03
2023-05-10T08:37:36.233Z,18.10
2023-05-10T08:40:07.898Z,18.13
2023-05-10T08:42:39.252Z,18.26
2023-05-10T08:45:10.964Z,18.26
2023-05-10T08:47:44.546Z,18.11
2023-05-10T08:50:17.406Z,18.21
2023-05-10T08:52:48.963Z,18.43
2023-05-10T08:55:19.919Z,18.63
2023-05-10T08:57:56.288Z,18.78
2023-05-10T09:00:27.341Z,18.65
2023-05-10T09:02:59.867Z,18.77
2023-05-10T09:05:33.637Z,18.97
2023-05-10T09:08:05.056Z,19.23
2023-05-10T09:10:38.032Z,19.42
2023-05-10T09:13:11.075Z,19.54
2023-05-10T09:15:41.869Z,19.57
2023-05-10T09:18:12.818Z,19.63
2023-05-10T09:20:43.664Z,19.78
2023-05-10T09:23:14.395Z,20.02
2023-05-10T09:25:46.144Z,20.17
2023-05-10T09:28:16.997Z,19.95
2023-05-10T09:30:47.823Z,20.06
2023-05-10T09:33:18.579Z,20.31
2023-05-10T09:35:49.092Z,20.09
2023-05-10T09:38:20.058Z,20.15
2023-05-10T09:40:55.555Z,20.32
2023-05-10T09:43:26.194Z,20.59
2023-05-10T09:45:56.886Z,20.82
2023-05-10T09:48:27.600Z,21.23
2023-05-10T09:51:00.545Z,21.60
2023-05-10T09:53:31.391Z,21.54
2023-05-10T09:56:02.274Z,21.62
2023-05-10T09:58:32.992Z,21.97
2023-05-10T10:01:03.808Z,22.14
2023-05-10T10:03:34.624Z,22.26
2023-05-10T10:06:06.768Z,22.19
2023-05-10T10:08:40.339Z,21.82
2023-05-10T10:11:11.006Z,21.27
2023-05-10T10:13:41.826Z,20.93
2023-05-10T10:16:12.497Z,20.70
2023-05-10T10:18:43.573Z,20.42
2023-05-10T10:21:17.347Z,20.05
2023-05-10T10:23:48.113Z,19.54
2023-05-10T10:26:18.986Z,19.06
2023-05-10T10:28:53.909Z,18.72
2023-05-10T10:31:27.917Z,18.44
2023-05-10T10:34:01.981Z,18.22
2023-05-10T10:36:36.693Z,18.03
2023-05-10T10:39:10.787Z,17.91
2023-05-10T10:41:44.952Z,17.74
2023-05-10T10:44:46.052Z,17.67
2023-05-10T10:47:32.160Z,17.67
2023-05-10T10:50:07.078Z,17.59
2023-05-10T10:52:38.000Z,17.45
2023-05-10T10:55:10.478Z,17.32
2023-05-10T10:57:48.359Z,17.20
2023-05-10T11:00:29.607Z,17.12
2023-05-10T11:03:01.480Z,17.09
2023-05-10T11:05:42.613Z,17.07
2023-05-10T11:08:14.269Z,17.06
2023-05-10T11:10:53.103Z,17.04
2023-05-10T11:13:33.825Z,17.01
2023-05-10T11:16:13.874Z,17.03
2023-05-10T11:18:47.975Z,17.08
2023-05-10T11:21:20.578Z,17.05
2023-05-10T11:23:52.032Z,17.02
2023-05-10T11:26:26.232Z,16.97
2023-05-10T11:29:00.287Z,17.02
2023-05-10T11:31:31.337Z,17.04
2023-05-10T11:34:03.041Z,17.09
2023-05-10T11:36:35.080Z,17.15
2023-05-10T11:39:06.322Z,17.19
2023-05-10T11:41:37.160Z,17.25
2023-05-10T11:44:07.979Z,17.36
2023-05-10T11:46:38.903Z,17.41
2023-05-10T11:49:09.703Z,17.46
2023-05-10T11:51:40.556Z,17.54
2023-05-10T11:54:14.768Z,17.54
2023-05-10T11:56:46.543Z,17.51
2023-05-10T11:59:17.674Z,17.58
2023-05-10T12:01:48.327Z,17.59
2023-05-10T12:04:19.109Z,17.65
2023-05-10T12:06:49.981Z,17.76
2023-05-10T12:09:31.570Z,17.85
2023-05-10T12:12:10.895Z,17.96
2023-05-10T12:14:41.681Z,18.09
2023-05-10T12:17:15.487Z,18.25
2023-05-10T12:19:46.258Z,18.30
2023-05-10T12:22:17.054Z,18.29
2023-05-10T12:24:49.254Z,18.36
2023-05-10T12:27:19.877Z,18.57
2023-05-10T12:29:50.486Z,18.72
2023-05-10T12:32:21.310Z,18.72
2023-05-10T12:34:53.412Z,18.77
2023-05-10T12:37:28.292Z,18.90
2023-05-10T12:39:59.042Z,19.02
2023-05-10T12:42:30.451Z,19.15
2023-05-10T12:45:01.229Z,19.28
2023-05-10T12:47:32.206Z,19.39
2023-05-10T12:50:03.650Z,19.40
2023-05-10T12:52:34.332Z,19.36
2023-05-10T12:55:05.235Z,19.34
2023-05-10T12:57:35.979Z,19.36
2023-05-10T13:00:08.092Z,19.35
2023-05-10T13:02:38.878Z,19.18
2023-05-10T13:05:10.597Z,19.04
2023-05-10T13:07:41.318Z,18.96
2023-05-10T13:10:12.460Z,18.86
2023-05-10T13:12:43.230Z,18.73
2023-05-10T13:15:14.106Z,18.55
2023-05-10T13:17:46.403Z,18.42
2023-05-10T13:20:17.490Z,18.29
2023-05-10T13:22:50.529Z,18.12
2023-05-10T13:25:21.956Z,17.97
2023-05-10T13:27:52.643Z,17.85
2023-05-10T13:30:24.986Z,17.78
2023-05-10T13:32:55.790Z,17.72
2023-05-10T13:35:26.759Z,17.67
2023-05-10T13:37:58.874Z,17.65
2023-05-10T13:40:30.225Z,17.64
2023-05-10T13:43:01.137Z,17.57
2023-05-10T13:45:31.949Z,17.51
2023-05-10T13:48:02.776Z,17.44
2023-05-10T13:50:33.652Z,17.38
2023-05-10T13:53:04.395Z,17.38
2023-05-10T13:55:35.142Z,17.43
2023-05-10T13:58:06.073Z,17.43
2023-05-10T14:00:36.619Z,17.42
2023-05-10T14:03:08.134Z,17.42
2023-05-10T14:05:38.980Z,17.44
2023-05-10T14:08:10.484Z,17.46
2023-05-10T14:10:41.504Z,17.50
2023-05-10T14:13:12.222Z,17.52
2023-05-10T14:15:42.960Z,17.53
2023-05-10T14:18:13.721Z,17.54
2023-05-10T14:20:44.429Z,17.59
2023-05-10T14:23:15.179Z,17.65
2023-05-10T14:25:45.954Z,17.65
2023-05-10T14:28:17.093Z,17.64
2023-05-10T14:30:48.046Z,17.62
2023-05-10T14:33:18.776Z,17.63
2023-05-10T14:35:49.462Z,17.63
2023-05-10T14:38:20.283Z,17.61
2023-05-10T14:40:50.907Z,17.58
2023-05-10T14:43:21.771Z,17.57
2023-05-10T14:45:52.513Z,17.56
2023-05-10T14:48:23.436Z,17.52
2023-05-10T14:50:54.821Z,17.48
2023-05-10T14:53:25.464Z,17.49
2023-05-10T14:55:56.207Z,17.55
2023-05-10T14:58:27.148Z,17.57
2023-05-10T15:00:57.834Z,17.65
2023-05-10T15:03:29.230Z,17.68
2023-05-10T15:06:00.670Z,17.71
2023-05-10T15:08:31.505Z,17.66
2023-05-10T15:11:02.607Z,17.62
2023-05-10T15:13:33.586Z,17.58
2023-05-10T15:16:04.386Z,17.58
2023-05-10T15:18:35.261Z,17.64
2023-05-10T15:21:06.220Z,17.67
2023-05-10T15:23:37.065Z,17.70
2023-05-10T15:26:07.698Z,17.76
2023-05-10T15:28:38.495Z,17.82
2023-05-10T15:31:09.196Z,17.86
2023-05-10T15:33:40.292Z,17.89
2023-05-10T15:36:11.032Z,17.92
2023-05-10T15:38:41.826Z,17.92
2023-05-10T15:41:12.946Z,17.87
2023-05-10T15:43:43.868Z,17.86
2023-05-10T15:46:14.760Z,17.86
2023-05-10T15:48:45.572Z,17.84
2023-05-10T15:51:16.693Z,17.78
2023-05-10T15:54:05.296Z,17.78
2023-05-10T15:56:38.312Z,17.76
2023-05-10T15:59:11.049Z,17.71
2023-05-10T16:01:43.441Z,17.63
2023-05-10T16:04:14.589Z,17.52
2023-05-10T16:06:45.753Z,17.47
2023-05-10T16:09:16.772Z,17.46
2023-05-10T16:11:47.674Z,17.42
2023-05-10T16:14:18.722Z,17.39
2023-05-10T16:16:49.624Z,17.34
2023-05-10T16:19:20.845Z,17.30
2023-05-10T16:21:51.651Z,17.25
2023-05-10T16:24:22.369Z,17.20
2023-05-10T16:26:53.297Z,17.18
2023-05-10T16:29:25.252Z,17.15
2023-05-10T16:31:57.692Z,17.09
2023-05-10T16:34:28.482Z,17.08
2023-05-10T16:36:59.232Z,17.09
2023-05-10T16:39:29.949Z,17.04
2023-05-10T16:42:01.224Z,16.97
2023-05-10T16:44:31.891Z,16.90
2023-05-10T16:47:03.406Z,16.83
2023-05-10T16:49:34.011Z,16.78
2023-05-10T16:52:04.885Z,16.71
2023-05-10T16:54:35.406Z,16.61
2023-05-10T16:57:06.408Z,16.49
2023-05-10T16:59:37.705Z,16.41
2023-05-10T17:02:11.017Z,16.32
2023-05-10T17:08:50.562Z,16.15
2023-05-10T17:11:27.077Z,16.16
2023-05-10T17:14:34.375Z,16.15
2023-05-10T17:17:12.710Z,16.15
2023-05-10T17:19:46.407Z,16.13
2023-05-10T17:22:17.223Z,16.03
2023-05-10T17:24:49.439Z,15.90
2023-05-10T17:27:20.361Z,15.82
2023-05-10T17:29:51.095Z,15.79
2023-05-10T17:32:25.691Z,15.76
2023-05-10T17:34:59.150Z,15.68
2023-05-10T17:37:30.139Z,15.60
2023-05-10T17:40:01.006Z,15.54
2023-05-10T17:42:34.279Z,15.49
2023-05-10T17:45:05.463Z,15.44
2023-05-10T17:47:36.388Z,15.41
2023-05-10T17:50:10.845Z,15.39
2023-05-10T17:52:41.799Z,15.36
2023-05-10T17:58:34.227Z,15.24
2023-05-10T18:01:05.438Z,15.20
2023-05-10T18:03:38.431Z,15.16
2023-05-10T18:06:11.771Z,15.13
2023-05-10T18:08:42.767Z,15.08
2023-05-10T18:11:16.796Z,15.01
2023-05-10T18:13:49.923Z,14.96
2023-05-10T18:16:25.249Z,14.89
2023-05-10T18:18:56.217Z,14.85
2023-05-10T18:21:29.215Z,14.81
2023-05-10T18:24:30.061Z,14.77
2023-05-10T18:35:57.950Z,14.62
2023-05-10T18:38:39.270Z,14.59
2023-05-10T18:55:08.810Z,14.31
2023-05-10T19:02:37.589Z,14.22
2023-05-10T19:13:37.045Z,14.06
2023-05-10T19:16:30.143Z,14.03
2023-05-10T19:19:04.394Z,14.02
2023-05-10T19:21:46.769Z,14.00
2023-05-10T19:24:25.416Z,13.96
2023-05-10T19:27:02.331Z,13.94
2023-05-10T19:29:45.648Z,13.92
2023-05-10T19:32:16.627Z,13.89
2023-05-10T19:34:53.643Z,13.86
2023-05-10T19:37:50.872Z,13.85
2023-05-10T19:40:21.646Z,13.81
2023-05-10T19:42:57.212Z,13.78
2023-05-10T19:45:27.916Z,13.72
2023-05-10T19:48:03.123Z,13.70
2023-05-10T19:50:33.983Z,13.67
2023-05-10T19:53:04.682Z,13.63
2023-05-10T19:55:38.353Z,13.56
2023-05-10T19:58:09.039Z,13.51
2023-05-10T20:00:40.387Z,13.48
2023-05-10T20:03:11.805Z,13.43
2023-05-10T20:05:42.753Z,13.37
2023-05-10T20:08:13.713Z,13.31
2023-05-10T20:10:44.570Z,13.25
2023-05-10T20:13:18.434Z,13.21
2023-05-10T20:15:49.148Z,13.16
2023-05-10T20:18:20.385Z,13.11
2023-05-10T20:20:52.218Z,13.10
2023-05-10T20:23:24.037Z,13.07
2023-05-10T20:25:55.263Z,13.02
2023-05-10T20:28:27.328Z,12.99
2023-05-10T20:30:58.169Z,12.99
2023-05-10T20:33:29.164Z,13.01
2023-05-10T20:36:28.745Z,12.99
2023-05-10T20:39:11.027Z,12.96
2023-05-10T20:41:45.098Z,12.94
2023-05-10T20:44:26.482Z,12.93
2023-05-10T20:47:12.801Z,12.93
2023-05-10T20:50:04.334Z,12.93
2023-05-10T20:52:38.304Z,12.91
2023-05-10T20:55:13.384Z,12.91
2023-05-10T20:57:47.387Z,12.89
2023-05-10T21:00:37.619Z,12.87
2023-05-10T21:03:14.861Z,12.87
2023-05-10T21:05:48.348Z,12.86
2023-05-10T21:08:39.792Z,12.85
2023-05-10T21:11:10.710Z,12.83
2023-05-10T21:13:41.436Z,12.78
2023-05-10T21:16:12.314Z,12.74
2023-05-10T21:18:43.201Z,12.73
2023-05-10T21:21:13.925Z,12.70
2023-05-10T21:23:44.726Z,12.70
2023-05-10T21:26:15.471Z,12.70
2023-05-10T21:28:46.807Z,12.69
2023-05-10T21:31:17.653Z,12.70
2023-05-10T21:33:48.366Z,12.71
2023-05-10T21:36:19.063Z,12.68
2023-05-10T21:38:50.668Z,12.67
2023-05-10T21:41:21.829Z,12.67
2023-05-10T21:43:52.646Z,12.65
2023-05-10T21:46:23.694Z,12.62
2023-05-10T21:48:54.692Z,12.60
2023-05-10T21:51:25.497Z,12.58
2023-05-10T21:53:56.254Z,12.57
2023-05-10T21:56:27.099Z,12.55
2023-05-10T21:58:58.159Z,12.51
2023-05-10T22:01:29.277Z,12.44
2023-05-10T22:04:00.068Z,12.41
2023-05-10T22:06:30.852Z,12.40
2023-05-10T22:09:01.846Z,12.36
2023-05-10T22:11:32.643Z,12.31
2023-05-10T22:14:03.543Z,12.25
2023-05-10T22:16:34.236Z,12.23
2023-05-10T22:19:05.445Z,12.20
2023-05-10T22:21:36.347Z,12.18
2023-05-10T22:24:07.465Z,12.15
2023-05-10T22:26:38.399Z,12.10
2023-05-10T22:29:09.243Z,12.06
2023-05-10T22:31:39.969Z,12.00
2023-05-10T22:34:10.686Z,11.95
2023-05-10T22:36:41.483Z,11.88
2023-05-10T22:39:12.316Z,11.82
2023-05-10T22:41:43.039Z,11.76
2023-05-10T22:44:13.782Z,11.73
2023-05-10T22:46:44.643Z,11.71
2023-05-10T22:49:15.505Z,11.69
2023-05-10T22:51:46.621Z,11.68
2023-05-10T22:54:17.633Z,11.67
2023-05-10T22:56:48.560Z,11.65
2023-05-10T22:59:19.373Z,11.63
2023-05-10T23:01:50.271Z,11.62
2023-05-10T23:04:21.028Z,11.61
2023-05-10T23:06:51.801Z,11.61
2023-05-10T23:09:22.666Z,11.59
2023-05-10T23:11:53.350Z,11.59
2023-05-10T23:14:24.214Z,11.57
2023-05-10T23:16:55.073Z,11.55
2023-05-10T23:19:25.898Z,11.54
2023-05-10T23:21:56.649Z,11.51
2023-05-10T23:24:27.278Z,11.48
2023-05-10T23:26:58.069Z,11.46
2023-05-10T23:29:28.862Z,11.45
2023-05-10T23:31:59.630Z,11.45
2023-05-10T23:34:30.723Z,11.44
2023-05-10T23:37:01.360Z,11.41
2023-05-10T23:39:32.002Z,11.38
2023-05-10T23:42:03.403Z,11.35
2023-05-10T23:44:34.322Z,11.31
2023-05-10T23:47:05.191Z,11.26
2023-05-10T23:49:36.456Z,11.22
2023-05-10T23:52:07.254Z,11.19
2023-05-10T23:54:38.141Z,11.14
2023-05-10T23:57:08.950Z,11.12
2023-05-10T23:59:39.618Z,11.09
